createdAt,value
2022-11-05T00:01:28.170Z,1.90
2022-11-05T00:04:51.438Z,1.73
2022-11-05T00:08:14.335Z,2.13
2022-11-05T00:11:18.429Z,2.35
2022-11-05T00:14:39.071Z,2.35
2022-11-05T00:17:41.918Z,2.35
2022-11-05T00:20:44.649Z,2.17
2022-11-05T00:24:06.118Z,2.08
2022-11-05T00:27:08.886Z,2.17
2022-11-05T00:30:12.708Z,2.38
2022-11-05T00:33:15.894Z,1.65
2022-11-05T00:36:18.560Z,2.05
2022-11-05T00:39:22.589Z,2.17
2022-11-05T00:42:43.112Z,1.88
2022-11-05T00:45:46.162Z,2.38
2022-11-05T00:49:06.310Z,2.17
2022-11-05T00:52:22.831Z,2.10
2022-11-05T00:55:28.204Z,1.80
2022-11-05T00:58:31.047Z,2.28
2022-11-05T01:01:33.808Z,1.65
2022-11-05T01:04:36.542Z,1.98
2022-11-05T01:07:39.114Z,1.73
2022-11-05T01:10:43.606Z,1.98
2022-11-05T01:13:46.374Z,2.08
2022-11-05T01:16:48.980Z,2.00
2022-11-05T01:19:52.015Z,2.03
2022-11-05T01:22:54.751Z,2.10
2022-11-05T01:25:59.419Z,2.63
2022-11-05T01:29:04.196Z,2.15
2022-11-05T01:32:06.865Z,2.55
2022-11-05T01:35:12.481Z,2.22
2022-11-05T01:38:15.508Z,2.20
2022-11-05T01:41:19.421Z,2.40
2022-11-05T01:44:40.074Z,2.38
2022-11-05T01:47:46.909Z,2.08
2022-11-05T01:50:51.214Z,1.88
2022-11-05T01:53:56.325Z,1.90
2022-11-05T01:57:02.057Z,1.98
2022-11-05T02:00:05.605Z,1.90
2022-11-05T02:03:16.194Z,1.38
2022-11-05T02:06:19.408Z,2.00
2022-11-05T02:09:24.178Z,2.05
2022-11-05T02:12:29.087Z,1.90
2022-11-05T02:15:37.789Z,2.00
2022-11-05T02:18:47.233Z,1.75
2022-11-05T02:22:04.786Z,2.00
2022-11-05T02:25:20.301Z,2.08
2022-11-05T02:28:33.389Z,1.98
2022-11-05T02:31:41.499Z,1.38
2022-11-05T02:34:50.154Z,1.98
2022-11-05T02:37:54.240Z,2.25
2022-11-05T02:41:03.430Z,1.90
2022-11-05T02:44:13.178Z,1.85
2022-11-05T02:47:24.526Z,2.10
2022-11-05T02:50:31.686Z,1.80
2022-11-05T02:53:37.682Z,1.92
2022-11-05T02:56:41.396Z,2.25
2022-11-05T02:59:43.978Z,1.95
2022-11-05T03:02:48.191Z,1.80
2022-11-05T03:06:08.949Z,1.90
2022-11-05T03:09:19.457Z,1.70
2022-11-05T03:12:28.039Z,1.85
2022-11-05T03:15:36.841Z,2.05
2022-11-05T03:18:43.324Z,1.85
2022-11-05T03:21:48.659Z,2.30
2022-11-05T03:24:54.258Z,1.90
2022-11-05T03:27:58.599Z,1.92
2022-11-05T03:31:02.505Z,1.75
2022-11-05T03:34:07.074Z,2.17
2022-11-05T03:37:10.977Z,1.77
2022-11-05T03:40:15.232Z,2.08
2022-11-05T03:43:19.272Z,2.08
2022-11-05T03:46:25.865Z,1.92
2022-11-05T03:49:32.482Z,2.20
2022-11-05T03:52:38.876Z,2.28
2022-11-05T03:56:08.140Z,2.05
2022-11-05T03:59:15.220Z,2.17
2022-11-05T04:06:19.766Z,2.15
2022-11-05T04:09:39.753Z,2.40
2022-11-05T04:13:11.663Z,2.50
2022-11-05T04:16:31.866Z,2.38
2022-11-05T04:19:52.446Z,2.55
2022-11-05T04:23:18.575Z,2.30
2022-11-05T04:26:23.277Z,2.63
2022-11-05T04:29:43.802Z,2.65
2022-11-05T04:33:05.735Z,2.22
2022-11-05T04:36:08.696Z,2.05
2022-11-05T04:39:12.732Z,1.95
2022-11-05T04:42:15.380Z,2.47
2022-11-05T04:45:17.983Z,2.85
2022-11-05T04:48:20.601Z,2.28
2022-11-05T04:51:23.675Z,2.70
2022-11-05T04:54:27.625Z,2.90
2022-11-05T04:57:30.725Z,2.60
2022-11-05T05:00:34.435Z,2.92
2022-11-05T05:03:37.047Z,2.50
2022-11-05T05:06:39.829Z,2.72
2022-11-05T05:09:43.938Z,2.72
2022-11-05T05:12:46.585Z,2.58
2022-11-05T05:15:49.274Z,3.05
2022-11-05T05:18:51.937Z,2.50
2022-11-05T05:21:53.588Z,2.97
2022-11-05T05:24:59.873Z,2.63
2022-11-05T05:28:02.569Z,2.85
2022-11-05T05:31:05.346Z,2.65
2022-11-05T05:34:08.533Z,2.78
2022-11-05T05:37:11.246Z,2.67
2022-11-05T05:40:15.395Z,2.85
2022-11-05T05:43:18.007Z,2.50
2022-11-05T05:46:20.584Z,2.33
2022-11-05T05:49:23.281Z,2.63
2022-11-05T05:52:26.769Z,2.63
2022-11-05T05:55:30.666Z,3.10
2022-11-05T05:58:34.209Z,2.22
2022-11-05T06:01:37.515Z,2.47
2022-11-05T06:04:40.274Z,2.85
2022-11-05T06:07:43.271Z,2.03
2022-11-05T06:10:52.546Z,2.20
2022-11-05T06:13:55.142Z,1.85
2022-11-05T06:16:57.989Z,2.60
2022-11-05T06:20:00.680Z,2.08
2022-11-05T06:23:03.275Z,2.40
2022-11-05T06:26:07.998Z,2.80
2022-11-05T06:29:10.939Z,2.58
2022-11-05T06:32:13.868Z,3.38
2022-11-05T06:35:16.941Z,2.65
2022-11-05T06:38:19.486Z,2.72
2022-11-05T06:41:23.430Z,2.60
2022-11-05T06:44:26.455Z,2.30
2022-11-05T06:47:29.033Z,2.40
2022-11-05T06:50:31.690Z,2.58
2022-11-05T06:53:34.488Z,2.45
2022-11-05T06:56:38.484Z,2.40
2022-11-05T06:59:41.628Z,2.40
2022-11-05T07:02:44.771Z,2.45
2022-11-05T07:05:48.905Z,2.70
2022-11-05T07:08:51.596Z,2.38
2022-11-05T07:11:55.707Z,2.33
2022-11-05T07:14:58.338Z,2.22
2022-11-05T07:18:01.514Z,2.63
2022-11-05T07:21:04.504Z,2.72
2022-11-05T07:24:07.875Z,2.55
2022-11-05T07:27:11.878Z,2.47
2022-11-05T07:30:14.623Z,2.97
2022-11-05T07:33:17.172Z,2.65
2022-11-05T07:36:19.739Z,2.80
2022-11-05T07:39:22.509Z,2.28
2022-11-05T07:42:26.501Z,2.20
2022-11-05T07:45:30.089Z,2.92
2022-11-05T07:48:32.821Z,3.30
2022-11-05T07:51:35.488Z,2.55
2022-11-05T07:54:38.149Z,2.47
2022-11-05T07:57:43.253Z,2.53
2022-11-05T08:00:45.972Z,2.17
2022-11-05T08:03:49.200Z,2.58
2022-11-05T08:06:52.573Z,2.35
2022-11-05T08:09:55.975Z,2.13
2022-11-05T08:13:00.117Z,2.17
2022-11-05T08:16:03.159Z,2.10
2022-11-05T08:19:07.859Z,1.90
2022-11-05T08:22:10.819Z,2.13
2022-11-05T08:25:14.115Z,2.40
2022-11-05T08:28:19.675Z,2.08
2022-11-05T08:31:22.299Z,1.95
2022-11-05T08:34:25.352Z,2.28
2022-11-05T08:37:28.010Z,2.20
2022-11-05T08:40:31.860Z,1.92
2022-11-05T08:43:35.882Z,2.20
2022-11-05T08:46:41.826Z,2.13
2022-11-05T08:49:44.667Z,2.08
2022-11-05T08:52:47.371Z,1.98
2022-11-05T08:55:51.580Z,2.10
2022-11-05T08:58:55.710Z,2.15
2022-11-05T09:01:58.660Z,1.90
2022-11-05T09:05:01.401Z,2.22
2022-11-05T09:08:04.610Z,1.85
2022-11-05T09:11:13.844Z,1.95
2022-11-05T09:14:37.519Z,1.55
2022-11-05T09:17:47.485Z,1.88
2022-11-05T09:20:53.747Z,1.33
2022-11-05T09:23:56.403Z,1.73
2022-11-05T09:27:00.331Z,1.45
2022-11-05T09:30:05.085Z,1.90
2022-11-05T09:33:08.667Z,1.38
2022-11-05T09:36:11.606Z,1.58
2022-11-05T09:39:14.400Z,1.63
2022-11-05T09:42:18.270Z,2.20
2022-11-05T09:45:26.747Z,1.63
2022-11-05T09:48:37.461Z,1.73
2022-11-05T09:51:41.745Z,1.38
2022-11-05T09:54:46.000Z,1.70
2022-11-05T09:58:00.843Z,1.80
2022-11-05T10:01:32.525Z,1.65
2022-11-05T10:04:37.139Z,1.52
2022-11-05T10:07:46.327Z,1.42
2022-11-05T10:10:54.587Z,1.55
2022-11-05T10:14:00.075Z,1.38
2022-11-05T10:17:06.207Z,1.67
2022-11-05T10:20:12.516Z,1.58
2022-11-05T10:23:19.758Z,1.33
2022-11-05T10:26:26.743Z,1.50
2022-11-05T10:29:30.443Z,1.20
2022-11-05T10:32:35.425Z,1.30
2022-11-05T10:35:43.215Z,1.27
2022-11-05T10:38:46.269Z,1.05
2022-11-05T10:41:55.609Z,1.30
2022-11-05T10:45:01.299Z,1.65
2022-11-05T10:48:19.888Z,1.27
2022-11-05T10:51:24.085Z,0.93
2022-11-05T10:54:31.122Z,1.38
2022-11-05T10:57:36.853Z,1.13
2022-11-05T11:00:41.027Z,1.17
2022-11-05T11:03:48.068Z,1.65
2022-11-05T11:06:53.205Z,1.30
2022-11-05T11:09:59.119Z,1.02
2022-11-05T11:13:03.161Z,1.08
2022-11-05T11:16:15.381Z,1.10
2022-11-05T11:19:29.688Z,1.00
2022-11-05T11:23:39.620Z,0.93
2022-11-05T11:26:43.328Z,1.10
2022-11-05T11:29:49.709Z,0.90
2022-11-05T11:32:52.624Z,1.15
2022-11-05T11:35:57.722Z,1.38
2022-11-05T11:39:01.270Z,1.15
2022-11-05T11:42:07.111Z,1.10
2022-11-05T11:45:16.464Z,0.80
2022-11-05T11:48:20.901Z,0.73
2022-11-05T11:51:33.184Z,0.63
2022-11-05T11:54:37.380Z,0.82
2022-11-05T11:57:44.253Z,0.60
2022-11-05T12:00:50.076Z,0.90
2022-11-05T12:03:55.417Z,0.80
2022-11-05T12:07:06.072Z,1.05
2022-11-05T12:10:19.416Z,0.95
2022-11-05T12:13:37.896Z,0.75
2022-11-05T12:17:08.598Z,0.80
2022-11-05T12:20:26.777Z,0.80
2022-11-05T12:23:45.827Z,0.70
2022-11-05T12:27:09.795Z,0.90
2022-11-05T12:30:17.518Z,0.70
2022-11-05T12:33:26.921Z,0.82
2022-11-05T12:36:46.388Z,0.88
2022-11-05T12:40:02.727Z,0.70
2022-11-05T12:43:13.560Z,0.90
2022-11-05T12:46:24.774Z,0.88
2022-11-05T12:49:39.111Z,0.93
2022-11-05T12:52:55.457Z,1.10
2022-11-05T12:56:05.243Z,1.20
2022-11-05T12:59:14.883Z,0.93
2022-11-05T13:02:21.692Z,0.90
2022-11-05T13:05:30.874Z,0.82
2022-11-05T13:08:40.422Z,1.00
2022-11-05T13:12:06.409Z,0.90
2022-11-05T13:15:15.727Z,0.70
2022-11-05T13:21:12.598Z,0.95
2022-11-05T13:23:53.573Z,0.70
2022-11-05T13:27:08.269Z,1.98
2022-11-05T13:30:17.299Z,1.23
2022-11-05T13:33:22.161Z,0.95
2022-11-05T13:37:03.711Z,0.88
2022-11-05T13:40:28.892Z,1.05
2022-11-05T13:43:49.721Z,1.60
2022-11-05T13:47:46.903Z,0.88
2022-11-05T13:51:39.599Z,0.85
2022-11-05T13:55:17.876Z,1.00
2022-11-05T13:58:40.101Z,1.30
2022-11-05T14:01:51.488Z,1.17
2022-11-05T14:09:18.387Z,0.95
2022-11-05T14:12:27.430Z,0.88
2022-11-05T14:16:10.121Z,0.88
2022-11-05T14:25:01.906Z,1.40
2022-11-05T14:28:44.611Z,1.40
2022-11-05T14:32:13.827Z,0.88
2022-11-05T14:36:06.349Z,1.00
2022-11-05T14:39:30.676Z,0.95
2022-11-05T14:42:36.491Z,0.85
2022-11-05T14:45:45.666Z,1.17
2022-11-05T14:49:08.092Z,1.08
2022-11-05T14:52:20.317Z,1.17
2022-11-05T14:59:53.441Z,1.02
2022-11-05T15:02:59.032Z,1.00
2022-11-05T15:06:47.496Z,1.08
2022-11-05T15:10:12.895Z,1.10
2022-11-05T15:14:07.171Z,1.15
2022-11-05T15:17:30.418Z,1.27
2022-11-05T15:20:44.303Z,1.05
2022-11-05T15:24:08.030Z,1.20
2022-11-05T15:27:23.660Z,1.30
2022-11-05T15:30:28.026Z,1.55
2022-11-05T15:33:47.023Z,1.27
2022-11-05T15:37:02.833Z,2.47
2022-11-05T15:41:45.206Z,2.47
2022-11-05T15:44:31.817Z,2.50
2022-11-05T15:47:36.736Z,2.55
2022-11-05T15:50:48.044Z,2.00
2022-11-05T15:54:24.366Z,2.03
2022-11-05T15:57:23.861Z,2.25
2022-11-05T16:00:29.533Z,2.33
2022-11-05T16:03:46.093Z,2.47
2022-11-05T16:06:50.197Z,2.67
2022-11-05T16:09:54.342Z,2.33
2022-11-05T16:12:57.045Z,2.13
2022-11-05T16:16:02.279Z,2.15
2022-11-05T16:19:20.605Z,2.30
2022-11-05T16:22:23.353Z,2.13
2022-11-05T16:25:31.065Z,2.10
2022-11-05T16:28:33.599Z,2.25
2022-11-05T16:31:38.071Z,2.00
2022-11-05T16:34:42.033Z,2.10
2022-11-05T16:37:51.791Z,2.10
2022-11-05T16:40:54.992Z,2.83
2022-11-05T16:43:58.375Z,2.65
2022-11-05T16:47:02.312Z,2.30
2022-11-05T16:50:11.185Z,2.40
2022-11-05T16:53:14.699Z,2.90
2022-11-05T16:56:30.661Z,2.78
2022-11-05T16:59:35.327Z,2.55
2022-11-05T17:02:41.173Z,3.00
2022-11-05T17:05:45.172Z,3.45
2022-11-05T17:08:49.216Z,2.97
2022-11-05T17:11:52.203Z,2.63
2022-11-05T17:14:54.712Z,2.67
2022-11-05T17:17:59.308Z,2.97
2022-11-05T17:21:02.582Z,2.72
2022-11-05T17:24:08.664Z,2.88
2022-11-05T17:27:11.329Z,3.30
2022-11-05T17:30:14.380Z,3.15
2022-11-05T17:33:24.934Z,3.28
2022-11-05T17:36:27.751Z,2.83
2022-11-05T17:39:31.971Z,2.67
2022-11-05T17:42:35.309Z,3.35
2022-11-05T17:45:44.886Z,3.50
2022-11-05T17:48:48.939Z,3.30
2022-11-05T17:51:51.676Z,3.65
2022-11-05T17:54:54.407Z,4.03
2022-11-05T17:57:56.945Z,4.10
2022-11-05T18:00:59.705Z,3.50
2022-11-05T18:04:08.651Z,3.95
2022-11-05T18:07:11.694Z,4.18
2022-11-05T18:10:14.585Z,3.38
2022-11-05T18:13:17.055Z,3.63
2022-11-05T18:16:19.563Z,3.63
2022-11-05T18:19:23.661Z,3.38
2022-11-05T18:22:26.681Z,3.80
2022-11-05T18:25:29.248Z,3.45
2022-11-05T18:28:32.798Z,4.70
2022-11-05T18:31:35.332Z,4.63
2022-11-05T18:34:39.384Z,3.97
2022-11-05T18:37:42.253Z,4.97
2022-11-05T18:40:48.295Z,3.08
2022-11-05T18:43:51.271Z,3.47
2022-11-05T18:46:58.404Z,3.67
2022-11-05T18:50:03.601Z,3.95
2022-11-05T18:53:07.478Z,3.67
2022-11-05T18:56:44.561Z,3.78
2022-11-05T18:59:47.804Z,3.67
2022-11-05T19:02:50.493Z,3.47
2022-11-05T19:05:58.004Z,3.33
2022-11-05T19:09:00.566Z,3.63
2022-11-05T19:12:03.249Z,3.42
2022-11-05T19:15:06.591Z,3.45
2022-11-05T19:18:09.328Z,3.13
2022-11-05T19:21:14.730Z,3.38
2022-11-05T19:24:26.665Z,3.38
2022-11-05T19:27:29.136Z,3.72
2022-11-05T19:30:33.380Z,3.72
2022-11-05T19:33:37.609Z,3.20
2022-11-05T19:36:43.698Z,3.58
2022-11-05T19:39:46.365Z,3.53
2022-11-05T19:42:50.157Z,3.83
2022-11-05T19:45:53.185Z,2.88
2022-11-05T19:48:55.807Z,2.92
2022-11-05T19:52:18.049Z,3.00
2022-11-05T19:55:20.779Z,3.17
2022-11-05T19:58:23.279Z,3.65
2022-11-05T20:01:26.876Z,3.30
2022-11-05T20:04:29.529Z,3.38
2022-11-05T20:07:33.338Z,3.08
2022-11-05T20:10:37.859Z,3.42
2022-11-05T20:13:41.553Z,3.83
2022-11-05T20:16:44.008Z,3.60
2022-11-05T20:19:46.758Z,3.97
2022-11-05T20:22:51.991Z,3.72
2022-11-05T20:26:22.751Z,3.35
2022-11-05T20:29:30.555Z,3.40
2022-11-05T20:32:37.474Z,2.83
2022-11-05T20:35:43.116Z,2.80
2022-11-05T20:38:55.054Z,2.65
2022-11-05T20:42:00.750Z,3.47
2022-11-05T20:45:03.691Z,2.88
2022-11-05T20:48:06.480Z,2.88
2022-11-05T20:51:09.691Z,3.45
2022-11-05T20:54:13.447Z,3.05
2022-11-05T20:57:15.969Z,2.60
2022-11-05T21:00:19.159Z,2.38
2022-11-05T21:03:21.745Z,2.85
2022-11-05T21:06:24.842Z,2.58
2022-11-05T21:09:28.828Z,2.67
2022-11-05T21:12:31.290Z,3.10
2022-11-05T21:15:50.299Z,2.70
2022-11-05T21:19:00.676Z,2.70
2022-11-05T21:22:04.110Z,2.95
2022-11-05T21:25:23.012Z,2.80
2022-11-05T21:28:26.292Z,2.60
2022-11-05T21:31:29.018Z,2.45
2022-11-05T21:34:32.169Z,2.45
2022-11-05T21:37:34.597Z,2.50
2022-11-05T21:40:38.636Z,2.58
2022-11-05T21:43:47.300Z,2.40
2022-11-05T21:46:50.548Z,3.00
2022-11-05T21:49:53.833Z,2.35
2022-11-05T21:53:14.282Z,2.45
2022-11-05T21:56:37.075Z,2.67
2022-11-05T21:59:54.297Z,3.05
2022-11-05T22:03:02.180Z,2.35
2022-11-05T22:06:05.390Z,2.15
2022-11-05T22:09:09.392Z,2.47
2022-11-05T22:12:13.738Z,2.55
2022-11-05T22:15:16.654Z,2.17
2022-11-05T22:18:19.505Z,2.22
2022-11-05T22:21:25.042Z,2.10
2022-11-05T22:24:30.525Z,2.20
2022-11-05T22:27:34.369Z,2.25
2022-11-05T22:31:05.486Z,1.90
2022-11-05T22:34:08.312Z,2.00
2022-11-05T22:37:12.485Z,2.03
2022-11-05T22:40:17.106Z,1.80
2022-11-05T22:43:22.926Z,2.08
2022-11-05T22:46:27.799Z,2.10
2022-11-05T22:49:30.313Z,1.70
2022-11-05T22:52:35.332Z,1.70
2022-11-05T22:55:41.562Z,1.88
2022-11-05T22:58:47.989Z,2.50
2022-11-05T23:01:51.972Z,1.45
2022-11-05T23:04:54.488Z,1.70
2022-11-05T23:08:17.631Z,1.48
2022-11-05T23:11:38.549Z,1.92
2022-11-05T23:14:43.224Z,1.48
2022-11-05T23:18:03.368Z,1.88
2022-11-05T23:21:23.503Z,1.52
2022-11-05T23:24:26.231Z,1.55
2022-11-05T23:27:31.141Z,1.60
2022-11-05T23:30:35.354Z,1.42
2022-11-05T23:33:36.880Z,1.45
2022-11-05T23:36:58.031Z,1.58
2022-11-05T23:40:00.989Z,1.70
2022-11-05T23:43:21.181Z,1.83
2022-11-05T23:46:42.902Z,1.35
2022-11-05T23:49:47.466Z,1.50
2022-11-05T23:52:50.192Z,1.70
2022-11-05T23:55:52.812Z,1.85
2022-11-05T23:58:55.649Z,1.60
